createdAt,value
2022-10-15T00:00:34.031Z,29.42
2022-10-15T00:02:57.677Z,28.45
2022-10-15T00:05:21.682Z,30.80
2022-10-15T00:07:45.271Z,33.97
2022-10-15T00:10:09.387Z,31.65
2022-10-15T00:12:33.831Z,29.85
2022-10-15T00:14:57.618Z,29.05
2022-10-15T00:17:22.888Z,32.08
2022-10-15T00:19:46.799Z,31.25
2022-10-15T00:22:10.331Z,30.95
2022-10-15T00:24:33.901Z,31.92
2022-10-15T00:26:57.579Z,30.15
2022-10-15T00:29:21.231Z,34.97
2022-10-15T00:31:44.787Z,34.30
2022-10-15T00:34:11.252Z,34.78
2022-10-15T00:36:37.405Z,36.63
2022-10-15T00:39:01.677Z,35.90
2022-10-15T00:41:28.618Z,36.03
2022-10-15T00:43:55.487Z,36.10
2022-10-15T00:46:29.556Z,37.97
2022-10-15T00:48:58.867Z,32.80
2022-10-15T00:51:27.305Z,37.45
2022-10-15T00:53:52.177Z,34.00
2022-10-15T00:56:19.776Z,32.53
2022-10-15T00:58:44.248Z,32.35
2022-10-15T01:01:07.896Z,36.30
2022-10-15T01:03:31.791Z,31.88
2022-10-15T01:05:56.322Z,35.00
2022-10-15T01:08:21.306Z,36.13
2022-10-15T01:10:54.399Z,34.67
2022-10-15T01:13:32.213Z,33.72
2022-10-15T01:16:02.654Z,35.75
2022-10-15T01:18:32.775Z,35.47
2022-10-15T01:21:07.794Z,33.35
2022-10-15T01:24:43.832Z,37.05
2022-10-15T01:27:34.358Z,38.60
2022-10-15T01:30:18.251Z,34.47
2022-10-15T01:32:54.824Z,38.45
2022-10-15T01:35:33.090Z,38.30
2022-10-15T01:38:06.083Z,35.47
2022-10-15T01:40:37.214Z,34.75
2022-10-15T01:43:02.528Z,42.53
2022-10-15T01:45:44.267Z,36.65
2022-10-15T01:48:14.635Z,41.92
2022-10-15T01:50:45.287Z,36.55
2022-10-15T01:53:10.528Z,42.50
2022-10-15T01:55:38.240Z,40.50
2022-10-15T01:58:04.036Z,37.33
2022-10-15T02:00:27.651Z,39.97
2022-10-15T02:02:52.649Z,40.55
2022-10-15T02:05:22.159Z,38.88
2022-10-15T02:07:58.555Z,41.13
2022-10-15T02:10:29.664Z,40.38
2022-10-15T02:13:06.099Z,45.05
2022-10-15T02:15:40.186Z,42.50
2022-10-15T02:18:12.423Z,45.08
2022-10-15T02:20:43.547Z,41.92
2022-10-15T02:23:14.939Z,42.35
2022-10-15T02:25:41.579Z,43.55
2022-10-15T02:28:06.575Z,46.15
2022-10-15T02:30:31.614Z,43.47
2022-10-15T02:33:00.104Z,44.22
2022-10-15T02:35:26.223Z,42.50
2022-10-15T02:37:54.231Z,41.65
2022-10-15T02:40:17.945Z,42.35
2022-10-15T02:42:42.042Z,43.22
2022-10-15T02:45:06.970Z,46.00
2022-10-15T02:47:31.640Z,42.08
2022-10-15T02:49:58.744Z,41.10
2022-10-15T02:52:23.838Z,45.35
2022-10-15T02:54:47.687Z,48.40
2022-10-15T02:57:11.959Z,44.05
2022-10-15T02:59:38.547Z,49.67
2022-10-15T03:02:02.083Z,44.13
2022-10-15T03:04:26.399Z,43.88
2022-10-15T03:06:50.472Z,46.60
2022-10-15T03:09:16.242Z,45.42
2022-10-15T03:11:40.834Z,47.10
2022-10-15T03:14:04.422Z,45.15
2022-10-15T03:16:29.242Z,43.63
2022-10-15T03:18:52.908Z,46.53
2022-10-15T03:21:16.582Z,44.25
2022-10-15T03:23:41.263Z,47.15
2022-10-15T03:26:12.782Z,48.97
2022-10-15T03:28:36.826Z,43.90
2022-10-15T03:31:00.591Z,49.22
2022-10-15T03:33:25.246Z,42.80
2022-10-15T03:35:49.927Z,46.33
2022-10-15T03:38:13.577Z,46.55
2022-10-15T03:40:37.493Z,53.55
2022-10-15T03:43:16.323Z,49.63
2022-10-15T03:45:40.102Z,45.97
2022-10-15T03:48:12.788Z,48.92
2022-10-15T03:50:36.552Z,47.90
2022-10-15T03:53:00.119Z,46.15
2022-10-15T03:55:23.807Z,47.30
2022-10-15T03:57:47.614Z,50.72
2022-10-15T04:00:15.435Z,42.55
2022-10-15T04:02:38.874Z,52.30
2022-10-15T04:05:10.313Z,45.53
2022-10-15T04:07:38.871Z,52.20
2022-10-15T04:10:09.228Z,47.63
2022-10-15T04:12:35.783Z,46.40
2022-10-15T04:14:59.615Z,45.50
2022-10-15T04:17:24.623Z,44.90
2022-10-15T04:19:48.202Z,50.85
2022-10-15T04:22:12.585Z,46.15
2022-10-15T04:24:44.291Z,49.80
2022-10-15T04:27:12.112Z,47.28
2022-10-15T04:29:35.786Z,44.75
2022-10-15T04:32:12.055Z,44.28
2022-10-15T04:34:37.122Z,44.45
2022-10-15T04:37:00.736Z,45.95
2022-10-15T04:39:25.000Z,41.30
2022-10-15T04:41:48.932Z,42.17
2022-10-15T04:44:22.022Z,43.28
2022-10-15T04:46:50.902Z,41.92
2022-10-15T04:49:29.990Z,42.30
2022-10-15T04:51:55.695Z,44.67
2022-10-15T04:56:58.168Z,41.33
2022-10-15T04:59:22.100Z,41.10
2022-10-15T05:02:20.982Z,42.55
2022-10-15T05:04:52.863Z,36.38
2022-10-15T05:07:17.942Z,39.08
2022-10-15T05:09:46.297Z,41.55
2022-10-15T05:12:10.768Z,39.05
2022-10-15T05:14:35.705Z,38.25
2022-10-15T05:17:04.651Z,40.10
2022-10-15T05:19:34.024Z,43.47
2022-10-15T05:21:57.769Z,38.72
2022-10-15T05:24:23.321Z,44.72
2022-10-15T05:26:52.131Z,37.10
2022-10-15T05:29:15.716Z,48.90
2022-10-15T05:31:39.410Z,45.80
2022-10-15T05:34:15.695Z,43.53
2022-10-15T05:36:48.604Z,48.20
2022-10-15T05:39:14.167Z,48.40
2022-10-15T05:41:41.494Z,54.83
2022-10-15T05:44:06.093Z,43.40
2022-10-15T05:46:30.210Z,43.17
2022-10-15T05:48:55.906Z,46.17
2022-10-15T05:51:20.791Z,39.78
2022-10-15T05:53:46.402Z,52.65
2022-10-15T05:56:10.459Z,41.28
2022-10-15T05:58:37.595Z,55.15
2022-10-15T06:01:04.699Z,51.60
2022-10-15T06:03:30.494Z,38.28
2022-10-15T06:05:54.220Z,36.00
2022-10-15T06:08:18.965Z,33.72
2022-10-15T06:10:42.603Z,41.40
2022-10-15T06:13:06.499Z,49.05
2022-10-15T06:15:31.530Z,64.60
2022-10-15T06:17:55.409Z,67.28
2022-10-15T06:20:19.027Z,60.50
2022-10-15T06:22:42.638Z,42.55
2022-10-15T06:25:07.676Z,47.75
2022-10-15T06:27:33.747Z,53.17
2022-10-15T06:29:57.236Z,59.17
2022-10-15T06:32:22.176Z,53.83
2022-10-15T06:34:45.967Z,53.00
2022-10-15T06:37:09.687Z,52.78
2022-10-15T06:39:33.235Z,42.35
2022-10-15T06:41:56.856Z,43.20
2022-10-15T06:44:29.302Z,54.55
2022-10-15T06:46:52.929Z,72.93
2022-10-15T06:49:17.854Z,48.80
2022-10-15T06:51:41.395Z,59.35
2022-10-15T06:54:05.140Z,51.72
2022-10-15T06:56:28.750Z,54.97
2022-10-15T06:58:52.256Z,48.22
2022-10-15T07:01:17.094Z,49.30
2022-10-15T07:03:40.881Z,49.72
2022-10-15T07:06:07.594Z,50.85
2022-10-15T07:08:31.156Z,50.50
2022-10-15T07:10:54.747Z,44.97
2022-10-15T07:13:21.118Z,38.10
2022-10-15T07:15:46.319Z,41.67
2022-10-15T07:18:09.832Z,37.88
2022-10-15T07:20:33.507Z,37.22
2022-10-15T07:23:03.309Z,33.38
2022-10-15T07:25:28.802Z,36.78
2022-10-15T07:27:52.430Z,31.10
2022-10-15T07:30:16.040Z,30.25
2022-10-15T07:32:39.929Z,27.48
2022-10-15T07:35:03.612Z,28.23
2022-10-15T07:37:27.446Z,25.95
2022-10-15T07:39:52.420Z,28.80
2022-10-15T07:42:15.915Z,25.13
2022-10-15T07:44:39.501Z,31.58
2022-10-15T07:47:07.954Z,35.90
2022-10-15T07:49:31.866Z,28.95
2022-10-15T07:51:55.439Z,23.67
2022-10-15T07:54:21.687Z,25.38
2022-10-15T07:56:46.567Z,23.42
2022-10-15T07:59:10.567Z,51.67
2022-10-15T08:01:34.054Z,72.93
2022-10-15T08:03:57.649Z,37.50
2022-10-15T08:06:21.638Z,50.03
2022-10-15T08:08:45.189Z,31.77
2022-10-15T08:11:10.518Z,90.93
2022-10-15T08:13:35.514Z,48.00
2022-10-15T08:16:00.319Z,35.53
2022-10-15T08:18:24.076Z,17.85
2022-10-15T08:20:47.578Z,17.70
2022-10-15T08:23:17.050Z,15.05
2022-10-15T08:25:42.037Z,41.95
2022-10-15T08:30:40.263Z,27.08
2022-10-15T08:33:09.782Z,53.47
2022-10-15T08:35:35.426Z,25.95
2022-10-15T08:37:58.910Z,32.03
2022-10-15T08:40:23.917Z,38.90
2022-10-15T08:42:48.431Z,27.35
2022-10-15T08:45:17.386Z,40.05
2022-10-15T08:47:48.315Z,15.95
2022-10-15T08:50:26.811Z,20.10
2022-10-15T08:52:52.295Z,16.77
2022-10-15T08:55:18.413Z,18.80
2022-10-15T08:57:48.736Z,14.23
2022-10-15T09:00:20.155Z,13.55
2022-10-15T09:03:00.394Z,12.82
2022-10-15T09:05:33.701Z,13.65
2022-10-15T09:08:05.855Z,15.18
2022-10-15T09:10:41.856Z,13.10
2022-10-15T09:13:16.237Z,14.35
2022-10-15T09:15:50.120Z,16.35
2022-10-15T09:18:23.392Z,12.35
2022-10-15T09:20:47.605Z,12.18
2022-10-15T09:23:18.921Z,11.77
2022-10-15T09:25:47.338Z,14.82
2022-10-15T09:28:12.523Z,13.80
2022-10-15T09:30:44.519Z,14.98
2022-10-15T09:33:16.904Z,12.90
2022-10-15T09:35:45.231Z,13.63
2022-10-15T09:38:27.059Z,12.52
2022-10-15T09:41:06.763Z,13.55
2022-10-15T09:43:36.233Z,13.02
2022-10-15T09:46:00.764Z,12.57
2022-10-15T09:48:28.873Z,11.55
2022-10-15T09:50:59.231Z,13.27
2022-10-15T09:53:33.994Z,12.73
2022-10-15T09:56:06.566Z,14.93
2022-10-15T09:58:36.704Z,60.72
2022-10-15T10:01:03.070Z,12.60
2022-10-15T10:03:34.357Z,20.55
2022-10-15T10:06:04.623Z,13.75
2022-10-15T10:08:39.209Z,63.95
2022-10-15T10:11:06.594Z,19.23
2022-10-15T10:13:34.257Z,13.95
2022-10-15T10:16:06.225Z,13.82
2022-10-15T10:18:32.515Z,14.90
2022-10-15T10:20:59.862Z,12.32
2022-10-15T10:23:26.673Z,10.70
2022-10-15T10:25:50.733Z,9.25
2022-10-15T10:28:24.764Z,13.02
2022-10-15T10:31:03.554Z,13.30
2022-10-15T10:33:31.949Z,12.02
2022-10-15T10:35:56.738Z,11.57
2022-10-15T10:38:26.170Z,11.55
2022-10-15T10:40:53.583Z,11.30
2022-10-15T10:43:25.226Z,11.48
2022-10-15T10:46:02.314Z,11.80
2022-10-15T10:48:48.247Z,13.20
2022-10-15T10:51:18.405Z,12.45
2022-10-15T10:53:52.567Z,9.82
2022-10-15T10:56:18.527Z,12.50
2022-10-15T10:58:43.045Z,12.95
2022-10-15T11:01:07.026Z,9.63
2022-10-15T11:03:36.905Z,9.40
2022-10-15T11:06:16.903Z,9.25
2022-10-15T11:08:48.607Z,9.40
2022-10-15T11:11:19.567Z,7.45
2022-10-15T11:13:57.302Z,7.63
2022-10-15T11:16:31.691Z,10.85
2022-10-15T11:19:19.863Z,9.88
2022-10-15T11:25:06.014Z,11.90
2022-10-15T11:27:49.823Z,11.23
2022-10-15T11:30:33.920Z,7.65
2022-10-15T11:33:11.455Z,11.85
2022-10-15T11:35:53.714Z,7.22
2022-10-15T11:38:30.422Z,8.10
2022-10-15T11:41:13.591Z,6.47
2022-10-15T11:43:57.062Z,8.38
2022-10-15T11:46:28.450Z,8.20
2022-10-15T11:49:08.273Z,8.18
2022-10-15T11:51:41.643Z,9.30
2022-10-15T11:54:24.733Z,6.93
2022-10-15T11:56:51.889Z,7.72
2022-10-15T11:59:32.219Z,7.90
2022-10-15T12:02:01.700Z,9.13
2022-10-15T12:04:37.668Z,9.25
2022-10-15T12:07:06.357Z,6.15
2022-10-15T12:09:33.638Z,6.50
2022-10-15T12:12:04.748Z,7.28
2022-10-15T12:14:36.673Z,8.93
2022-10-15T12:17:14.981Z,7.05
2022-10-15T12:19:46.011Z,7.65
2022-10-15T12:22:12.507Z,8.07
2022-10-15T12:24:56.494Z,8.20
2022-10-15T12:27:26.799Z,6.72
2022-10-15T12:29:53.196Z,6.72
2022-10-15T12:32:25.264Z,7.38
2022-10-15T12:34:55.719Z,6.03
2022-10-15T12:37:21.602Z,7.28
2022-10-15T12:39:52.160Z,6.18
2022-10-15T12:42:28.188Z,9.38
2022-10-15T12:44:52.435Z,6.55
2022-10-15T12:47:15.989Z,9.95
2022-10-15T12:49:49.033Z,6.65
2022-10-15T12:52:54.216Z,6.45
2022-10-15T12:55:25.557Z,10.10
2022-10-15T12:58:13.069Z,6.35
2022-10-15T13:00:44.445Z,5.90
2022-10-15T13:03:43.005Z,6.60
2022-10-15T13:06:26.237Z,9.70
2022-10-15T13:08:54.383Z,6.43
2022-10-15T13:11:23.702Z,5.63
2022-10-15T13:13:48.111Z,5.30
2022-10-15T13:16:14.297Z,4.78
2022-10-15T13:18:38.219Z,5.97
2022-10-15T13:23:32.946Z,5.65
2022-10-15T13:26:20.088Z,7.50
2022-10-15T13:28:44.891Z,7.32
2022-10-15T13:31:14.960Z,4.82
2022-10-15T13:33:43.195Z,5.68
2022-10-15T13:36:07.847Z,5.47
2022-10-15T13:38:31.477Z,4.93
2022-10-15T13:40:55.682Z,9.65
2022-10-15T13:43:22.335Z,4.15
2022-10-15T13:45:48.670Z,5.93
2022-10-15T13:48:14.056Z,24.50
2022-10-15T13:50:38.806Z,75.80
2022-10-15T13:53:13.703Z,90.53
2022-10-15T13:55:41.706Z,24.55
2022-10-15T13:58:15.308Z,14.20
2022-10-15T14:00:40.951Z,10.40
2022-10-15T14:03:17.823Z,5.60
2022-10-15T14:05:41.480Z,3.40
2022-10-15T14:08:05.074Z,3.92
2022-10-15T14:10:28.667Z,4.93
2022-10-15T14:12:53.008Z,3.70
2022-10-15T14:15:49.653Z,4.82
2022-10-15T14:18:16.870Z,11.68
2022-10-15T14:20:45.049Z,6.30
2022-10-15T14:23:16.887Z,3.40
2022-10-15T14:25:40.988Z,4.03
2022-10-15T14:28:04.666Z,3.00
2022-10-15T14:30:33.316Z,5.53
2022-10-15T14:32:58.299Z,2.83
2022-10-15T14:35:26.998Z,3.20
2022-10-15T14:38:02.585Z,2.63
2022-10-15T14:40:26.137Z,4.78
2022-10-15T14:43:03.928Z,2.80
2022-10-15T14:45:29.741Z,3.20
2022-10-15T14:47:57.447Z,5.97
2022-10-15T14:50:22.008Z,3.30
2022-10-15T14:52:46.931Z,3.53
2022-10-15T14:55:17.913Z,3.85
2022-10-15T14:57:45.122Z,3.70
2022-10-15T15:00:17.417Z,5.88
2022-10-15T15:02:41.270Z,3.40
2022-10-15T15:05:22.778Z,3.65
2022-10-15T15:07:48.059Z,3.58
2022-10-15T15:10:13.064Z,3.28
2022-10-15T15:12:37.410Z,3.00
2022-10-15T15:15:01.356Z,3.45
2022-10-15T15:17:27.150Z,7.72
2022-10-15T15:19:51.960Z,3.42
2022-10-15T15:22:22.343Z,3.22
2022-10-15T15:24:46.402Z,4.38
2022-10-15T15:27:23.300Z,6.68
2022-10-15T15:29:48.475Z,2.97
2022-10-15T15:32:14.595Z,3.53
2022-10-15T15:34:40.198Z,3.75
2022-10-15T15:37:03.750Z,3.70
2022-10-15T15:39:28.686Z,5.75
2022-10-15T15:41:52.178Z,3.42
2022-10-15T15:44:15.759Z,5.03
2022-10-15T15:46:39.383Z,6.43
2022-10-15T15:49:02.942Z,23.25
2022-10-15T15:51:30.226Z,14.85
2022-10-15T15:53:54.357Z,28.33
2022-10-15T15:56:19.494Z,44.67
2022-10-15T15:58:43.107Z,42.13
2022-10-15T16:01:07.083Z,22.33
2022-10-15T16:03:30.839Z,20.17
2022-10-15T16:05:54.387Z,18.33
2022-10-15T16:08:18.224Z,9.68
2022-10-15T16:10:45.045Z,9.20
2022-10-15T16:13:10.034Z,9.63
2022-10-15T16:15:33.559Z,8.73
2022-10-15T16:17:57.144Z,8.07
2022-10-15T16:20:21.043Z,6.63
2022-10-15T16:22:44.621Z,5.53
2022-10-15T16:25:09.871Z,8.10
2022-10-15T16:27:34.511Z,5.55
2022-10-15T16:29:59.490Z,8.48
2022-10-15T16:32:23.174Z,7.28
2022-10-15T16:34:46.901Z,6.65
2022-10-15T16:37:10.493Z,6.60
2022-10-15T16:39:34.019Z,5.88
2022-10-15T16:41:57.700Z,5.32
2022-10-15T16:44:21.339Z,8.18
2022-10-15T16:46:46.346Z,10.48
2022-10-15T16:49:10.919Z,4.97
2022-10-15T16:51:36.469Z,5.05
2022-10-15T16:54:02.438Z,5.78
2022-10-15T16:56:28.662Z,5.15
2022-10-15T16:58:52.661Z,6.45
2022-10-15T17:01:20.854Z,5.32
2022-10-15T17:03:46.532Z,5.60
2022-10-15T17:06:12.815Z,7.00
2022-10-15T17:08:40.974Z,6.95
2022-10-15T17:11:04.696Z,6.15
2022-10-15T17:13:28.303Z,14.82
2022-10-15T17:15:51.872Z,6.97
2022-10-15T17:18:15.753Z,10.02
2022-10-15T17:20:47.242Z,7.20
2022-10-15T17:23:10.920Z,8.18
2022-10-15T17:25:37.234Z,7.55
2022-10-15T17:28:00.999Z,8.80
2022-10-15T17:30:24.757Z,8.73
2022-10-15T17:32:50.958Z,9.30
2022-10-15T17:35:14.707Z,8.02
2022-10-15T17:37:39.988Z,9.90
2022-10-15T17:40:04.277Z,8.85
2022-10-15T17:42:29.544Z,8.50
2022-10-15T17:44:53.618Z,8.07
2022-10-15T17:47:17.485Z,9.60
2022-10-15T17:49:41.502Z,9.10
2022-10-15T17:52:06.201Z,9.20
2022-10-15T17:54:31.147Z,9.23
2022-10-15T17:56:54.722Z,10.07
2022-10-15T17:59:18.332Z,11.10
2022-10-15T18:02:00.695Z,13.02
2022-10-15T18:04:28.358Z,14.38
2022-10-15T18:06:52.254Z,11.68
2022-10-15T18:09:21.794Z,12.77
2022-10-15T18:11:48.567Z,13.80
2022-10-15T18:14:12.157Z,13.85
2022-10-15T18:16:35.731Z,13.27
2022-10-15T18:18:59.451Z,13.52
2022-10-15T18:21:28.876Z,17.70
2022-10-15T18:23:56.421Z,13.13
2022-10-15T18:26:22.367Z,11.95
2022-10-15T18:28:48.441Z,12.27
2022-10-15T18:31:15.014Z,13.13
2022-10-15T18:33:40.149Z,42.78
2022-10-15T18:36:09.036Z,20.95
2022-10-15T18:38:32.625Z,17.98
2022-10-15T18:40:56.190Z,15.00
2022-10-15T18:43:21.042Z,13.82
2022-10-15T18:45:47.365Z,16.35
2022-10-15T18:48:10.916Z,15.13
2022-10-15T18:50:35.844Z,15.90
2022-10-15T18:52:59.427Z,18.95
2022-10-15T18:55:23.014Z,18.60
2022-10-15T18:57:46.608Z,18.20
2022-10-15T19:00:12.000Z,15.93
2022-10-15T19:02:36.981Z,16.90
2022-10-15T19:05:00.531Z,15.57
2022-10-15T19:07:24.212Z,13.40
2022-10-15T19:09:47.728Z,15.77
2022-10-15T19:12:13.975Z,17.88
2022-10-15T19:14:37.491Z,16.73
2022-10-15T19:17:03.780Z,19.60
2022-10-15T19:19:30.440Z,18.30
2022-10-15T19:21:55.931Z,19.60
2022-10-15T19:24:21.990Z,19.70
2022-10-15T19:26:46.540Z,20.77
2022-10-15T19:29:10.422Z,19.60
2022-10-15T19:31:37.134Z,21.23
2022-10-15T19:34:01.031Z,19.90
2022-10-15T19:36:32.221Z,19.23
2022-10-15T19:38:56.153Z,18.23
2022-10-15T19:41:20.207Z,17.02
2022-10-15T19:43:44.375Z,17.40
2022-10-15T19:46:07.959Z,14.38
2022-10-15T19:48:34.762Z,15.57
2022-10-15T19:50:58.307Z,22.25
2022-10-15T19:53:23.272Z,12.40
2022-10-15T19:55:57.370Z,10.88
2022-10-15T19:58:21.099Z,10.30
2022-10-15T20:00:50.003Z,10.05
2022-10-15T20:03:13.737Z,10.45
2022-10-15T20:05:37.269Z,8.65
2022-10-15T20:08:01.044Z,10.18
2022-10-15T20:10:26.613Z,9.57
2022-10-15T20:12:50.394Z,10.45
2022-10-15T20:15:14.330Z,8.68
2022-10-15T20:17:38.015Z,8.45
2022-10-15T20:20:01.606Z,7.97
2022-10-15T20:22:25.504Z,9.40
2022-10-15T20:24:49.242Z,7.68
2022-10-15T20:27:14.235Z,9.27
2022-10-15T20:29:37.819Z,9.82
2022-10-15T20:32:11.416Z,5.40
2022-10-15T20:34:46.155Z,6.88
2022-10-15T20:37:09.771Z,8.50
2022-10-15T20:39:33.474Z,8.52
2022-10-15T20:41:57.029Z,11.18
2022-10-15T20:44:22.028Z,7.60
2022-10-15T20:46:50.540Z,10.80
2022-10-15T20:49:18.212Z,8.10
2022-10-15T20:51:44.407Z,8.88
2022-10-15T20:54:08.451Z,7.57
2022-10-15T20:56:32.156Z,7.55
2022-10-15T20:58:55.749Z,11.80
2022-10-15T21:01:21.323Z,8.13
2022-10-15T21:03:45.001Z,8.77
2022-10-15T21:06:08.555Z,7.43
2022-10-15T21:08:32.169Z,12.23
2022-10-15T21:11:02.541Z,10.23
2022-10-15T21:13:26.255Z,8.50
2022-10-15T21:15:49.775Z,9.57
2022-10-15T21:18:15.637Z,10.52
2022-10-15T21:20:39.187Z,7.22
2022-10-15T21:23:02.769Z,7.20
2022-10-15T21:25:26.475Z,6.38
2022-10-15T21:27:50.091Z,8.02
2022-10-15T21:30:13.830Z,6.18
2022-10-15T21:32:37.419Z,6.20
2022-10-15T21:35:03.663Z,7.70
2022-10-15T21:37:27.570Z,5.68
2022-10-15T21:39:51.876Z,5.43
2022-10-15T21:42:15.444Z,5.97
2022-10-15T21:44:39.035Z,6.00
2022-10-15T21:47:02.671Z,7.18
2022-10-15T21:49:26.186Z,6.00
2022-10-15T21:51:51.190Z,6.60
2022-10-15T21:54:14.714Z,5.30
2022-10-15T21:56:38.684Z,5.82
2022-10-15T21:59:02.323Z,5.85
2022-10-15T22:01:28.890Z,5.70
2022-10-15T22:03:54.686Z,5.65
2022-10-15T22:06:20.098Z,6.18
2022-10-15T22:08:45.750Z,5.28
2022-10-15T22:11:12.054Z,4.97
2022-10-15T22:13:35.594Z,4.47
2022-10-15T22:16:01.603Z,5.75
2022-10-15T22:18:25.181Z,5.32
2022-10-15T22:20:48.809Z,6.13
2022-10-15T22:23:12.307Z,4.80
2022-10-15T22:25:37.561Z,5.70
2022-10-15T22:28:01.099Z,6.07
2022-10-15T22:30:24.647Z,16.65
2022-10-15T22:32:48.223Z,5.38
2022-10-15T22:35:11.851Z,4.75
2022-10-15T22:37:35.503Z,5.40
2022-10-15T22:39:59.103Z,6.10
2022-10-15T22:42:24.410Z,5.82
2022-10-15T22:44:48.255Z,6.45
2022-10-15T22:47:11.971Z,6.45
2022-10-15T22:49:35.743Z,6.07
2022-10-15T22:51:59.259Z,8.70
2022-10-15T22:54:24.148Z,5.72
2022-10-15T22:56:47.748Z,6.32
2022-10-15T22:59:12.769Z,9.00
2022-10-15T23:01:36.914Z,8.13
2022-10-15T23:04:03.542Z,9.25
2022-10-15T23:06:27.506Z,6.18
2022-10-15T23:08:51.766Z,5.63
2022-10-15T23:11:18.710Z,7.03
2022-10-15T23:13:43.745Z,5.45
2022-10-15T23:16:13.979Z,5.32
2022-10-15T23:18:37.538Z,5.40
2022-10-15T23:21:06.250Z,9.05
2022-10-15T23:23:29.803Z,6.93
2022-10-15T23:25:53.305Z,5.53
2022-10-15T23:28:16.859Z,5.93
2022-10-15T23:30:40.619Z,6.75
2022-10-15T23:33:05.744Z,5.28
2022-10-15T23:35:29.312Z,5.15
2022-10-15T23:37:52.910Z,5.75
2022-10-15T23:40:16.594Z,5.18
2022-10-15T23:42:40.323Z,4.78
2022-10-15T23:45:03.917Z,4.90
2022-10-15T23:47:27.707Z,7.15
2022-10-15T23:49:52.983Z,5.72
2022-10-15T23:52:16.535Z,4.60
2022-10-15T23:54:40.335Z,6.47
2022-10-15T23:57:04.052Z,4.00
2022-10-15T23:59:27.927Z,6.68
